Time;durP1;ratioP1;P1;durP2;ratioP2;P2;SDS_P1;SDS_P2;PMS_P1;PMS_P2;Temp;Humidity;BMP_temperature;BMP_pressure;BME280_temperature;BME280_humidity;BME280_pressure;Samples;Min_cycle;Max_cycle;Signal;HPM_P1;HPM_P2
2022/01/18 00:02:25;;;;;;;19.33;17.20;;;4.80;99.90;;;;;;5030876;28;20213;-75
2022/01/18 00:04:52;;;;;;;21.63;17.40;;;4.90;99.90;;;;;;5031434;28;20194;-75
2022/01/18 00:07:20;;;;;;;19.75;17.35;;;4.90;99.90;;;;;;5030572;28;20791;-76
2022/01/18 00:09:48;;;;;;;22.35;18.35;;;4.90;99.90;;;;;;5031590;28;20209;-76
2022/01/18 00:12:32;;;;;;;19.35;16.02;;;4.90;99.90;;;;;;5031251;28;20335;-75
2022/01/18 00:15:19;;;;;;;20.38;16.45;;;5.00;99.90;;;;;;5031571;28;20197;-76
2022/01/18 00:17:52;;;;;;;19.98;16.65;;;5.00;99.90;;;;;;5032472;28;20226;-76
2022/01/18 00:20:26;;;;;;;19.95;17.42;;;4.90;99.90;;;;;;5026690;28;20287;-76
2022/01/18 00:22:54;;;;;;;19.40;16.80;;;4.90;99.90;;;;;;5031099;28;20235;-76
2022/01/18 00:25:21;;;;;;;17.90;15.45;;;4.90;99.90;;;;;;5030621;28;20281;-76
2022/01/18 00:27:48;;;;;;;18.00;15.50;;;4.90;99.90;;;;;;5035082;28;20216;-76
2022/01/18 00:30:34;;;;;;;19.25;17.17;;;4.90;99.90;;;;;;5030052;28;20201;-79
2022/01/18 00:33:14;;;;;;;19.00;16.85;;;4.90;99.90;;;;;;5029215;28;20549;-75
2022/01/18 00:35:57;;;;;;;20.23;17.10;;;4.90;99.90;;;;;;5028965;28;20198;-76
2022/01/18 00:38:31;;;;;;;19.35;16.73;;;4.90;99.90;;;;;;5025135;28;20229;-76
2022/01/18 00:40:59;;;;;;;19.50;16.63;;;4.90;99.90;;;;;;5030849;28;20241;-75
2022/01/18 00:43:26;;;;;;;20.15;16.50;;;4.90;99.90;;;;;;5030733;28;20206;-76
2022/01/18 00:45:53;;;;;;;17.85;15.85;;;4.90;99.90;;;;;;5032181;28;20780;-75
2022/01/18 00:48:20;;;;;;;19.35;16.33;;;4.90;99.90;;;;;;5023758;28;20543;-76
2022/01/18 00:50:49;;;;;;;18.63;16.58;;;4.90;99.90;;;;;;5028741;28;20648;-76
2022/01/18 00:53:18;;;;;;;20.15;16.95;;;4.90;99.90;;;;;;5030413;28;20213;-76
2022/01/18 00:56:00;;;;;;;20.63;17.15;;;4.80;99.90;;;;;;5031659;28;20661;-76
2022/01/18 00:58:26;;;;;;;20.15;17.15;;;4.80;99.90;;;;;;5030235;28;20225;-75
2022/01/18 01:00:53;;;;;;;21.95;18.63;;;4.80;99.90;;;;;;5028150;28;20223;-75
2022/01/18 01:03:20;;;;;;;20.50;16.92;;;4.80;99.90;;;;;;5029792;28;20209;-75
2022/01/18 01:05:47;;;;;;;21.27;17.70;;;4.80;99.90;;;;;;5031061;28;20203;-75
2022/01/18 01:08:14;;;;;;;20.65;17.92;;;4.80;99.90;;;;;;5030560;28;20200;-75
2022/01/18 01:10:41;;;;;;;20.95;18.02;;;4.80;99.90;;;;;;5028100;28;20205;-75
2022/01/18 01:13:11;;;;;;;19.70;17.25;;;4.90;99.90;;;;;;5030405;28;20198;-75
2022/01/18 01:15:55;;;;;;;19.00;16.40;;;4.90;99.90;;;;;;5024947;28;20197;-76
2022/01/18 01:18:37;;;;;;;19.88;17.65;;;4.90;99.90;;;;;;5031193;28;20720;-75
2022/01/18 01:32:28;;;;;;;20.45;18.00;;;5.10;99.90;;;;;;4993595;28;20218;-76
2022/01/18 01:34:59;;;;;;;19.10;16.90;;;5.10;99.90;;;;;;5024528;28;20624;-75
2022/01/18 01:43:11;;;;;;;21.67;17.52;;;5.00;99.90;;;;;;5030889;28;20251;-78
2022/01/18 01:45:40;;;;;;;24.75;18.80;;;4.90;99.90;;;;;;5027122;28;20235;-75
2022/01/18 01:48:08;;;;;;;21.20;17.13;;;4.80;99.90;;;;;;5029393;28;20206;-75
2022/01/18 01:50:44;;;;;;;20.90;18.23;;;4.80;99.90;;;;;;5027725;28;20202;-75
2022/01/18 01:53:11;;;;;;;22.85;19.50;;;4.90;99.90;;;;;;5028949;28;20209;-75
2022/01/18 01:55:39;;;;;;;20.20;18.05;;;4.90;99.90;;;;;;5030380;28;20297;-76
2022/01/18 01:58:06;;;;;;;22.85;18.77;;;4.90;99.90;;;;;;5028293;28;20224;-76
2022/01/18 02:00:34;;;;;;;23.30;18.38;;;5.00;99.90;;;;;;5029020;28;20201;-76
2022/01/18 02:03:03;;;;;;;23.52;18.52;;;5.00;99.90;;;;;;5028519;28;20205;-76
2022/01/18 02:05:30;;;;;;;24.00;18.48;;;5.00;99.90;;;;;;5030282;28;20204;-76
2022/01/18 02:07:57;;;;;;;24.48;18.27;;;5.00;99.90;;;;;;5027228;28;20217;-75
2022/01/18 02:10:23;;;;;;;22.17;17.85;;;4.90;99.90;;;;;;5026353;28;20204;-75
2022/01/18 02:12:50;;;;;;;20.73;17.15;;;4.90;99.90;;;;;;5028906;28;20205;-75
2022/01/18 02:15:19;;;;;;;22.88;17.27;;;5.00;99.90;;;;;;5028775;28;20209;-75
2022/01/18 02:23:18;;;;;;;22.90;18.70;;;5.10;99.90;;;;;;5029218;28;20198;-75
2022/01/18 02:25:45;;;;;;;22.65;17.33;;;5.10;99.90;;;;;;5029189;28;20197;-76
2022/01/18 02:28:13;;;;;;;20.20;17.75;;;5.10;99.90;;;;;;5028296;28;20201;-75
2022/01/18 02:30:40;;;;;;;23.17;17.73;;;5.10;99.90;;;;;;5028520;28;20229;-76
2022/01/18 02:33:07;;;;;;;22.85;18.08;;;5.00;99.90;;;;;;5031837;28;20251;-75
2022/01/18 02:35:36;;;;;;;22.00;17.75;;;5.00;99.90;;;;;;5029323;28;20283;-75
2022/01/18 02:38:04;;;;;;;22.88;17.42;;;5.00;99.90;;;;;;5027089;28;20233;-75
2022/01/18 02:40:31;;;;;;;20.10;17.50;;;5.00;99.90;;;;;;5028894;28;20208;-76
2022/01/18 02:43:46;;;;;;;21.85;17.73;;;5.00;99.90;;;;;;5029876;28;20255;-75
2022/01/18 02:45:47;;;;;;;22.58;19.60;;;5.00;99.90;;;;;;5019837;28;20204;-75
2022/01/18 02:48:14;;;;;;;20.80;18.40;;;5.00;99.90;;;;;;5021184;28;21993;-76
2022/01/18 02:50:43;;;;;;;22.88;18.95;;;5.10;99.90;;;;;;5024999;28;20229;-76
2022/01/18 02:53:10;;;;;;;22.33;19.15;;;5.10;99.90;;;;;;5028920;28;20194;-76
2022/01/18 02:55:37;;;;;;;21.80;18.25;;;5.20;99.90;;;;;;5030014;28;20239;-75
2022/01/18 02:58:08;;;;;;;24.48;19.60;;;5.30;99.90;;;;;;5028346;28;20316;-76
2022/01/18 03:00:45;;;;;;;24.13;18.20;;;5.30;99.90;;;;;;5027515;28;20225;-76
2022/01/18 03:03:13;;;;;;;20.35;17.60;;;5.40;99.90;;;;;;5028696;28;20240;-75
2022/01/18 03:05:43;;;;;;;22.23;18.40;;;5.50;99.90;;;;;;5028064;28;20198;-75
2022/01/18 03:08:10;;;;;;;22.85;17.83;;;5.50;99.90;;;;;;5027543;28;20225;-75
2022/01/18 03:10:37;;;;;;;21.65;17.15;;;5.60;99.90;;;;;;5023775;28;20193;-76
2022/01/18 03:13:05;;;;;;;21.80;17.33;;;5.70;99.90;;;;;;5028232;28;20198;-75
2022/01/18 03:15:33;;;;;;;23.08;18.67;;;5.70;99.90;;;;;;5027638;28;20559;-76
2022/01/18 03:18:01;;;;;;;20.20;17.50;;;5.70;99.90;;;;;;5029816;28;20684;-77
2022/01/18 03:20:28;;;;;;;23.27;18.50;;;5.60;99.90;;;;;;5027876;28;20917;-75
2022/01/18 03:22:57;;;;;;;23.05;19.08;;;5.60;99.90;;;;;;5032798;28;20625;-75
2022/01/18 03:25:29;;;;;;;21.20;17.70;;;5.60;99.90;;;;;;5031815;28;20290;-76
2022/01/18 03:28:06;;;;;;;25.67;20.20;;;5.60;99.90;;;;;;5029469;28;20265;-76
2022/01/18 03:30:34;;;;;;;23.63;18.65;;;5.50;99.90;;;;;;5031114;28;20197;-75
2022/01/18 03:33:01;;;;;;;24.58;19.70;;;5.50;99.90;;;;;;5029416;28;20625;-75
2022/01/18 03:35:28;;;;;;;22.75;19.08;;;5.50;99.90;;;;;;5032466;28;20292;-75
2022/01/18 03:37:56;;;;;;;26.35;21.30;;;5.50;99.90;;;;;;5031869;28;20224;-75
2022/01/18 03:40:24;;;;;;;25.20;20.75;;;5.50;99.90;;;;;;5031006;28;20205;-76
2022/01/18 03:42:52;;;;;;;23.77;18.98;;;5.50;99.90;;;;;;5031790;28;20237;-75
2022/01/18 03:45:23;;;;;;;22.27;19.38;;;5.50;99.90;;;;;;5030923;28;20210;-75
2022/01/18 03:47:50;;;;;;;26.63;21.95;;;5.50;99.90;;;;;;5031550;28;20202;-76
2022/01/18 03:50:18;;;;;;;26.40;20.98;;;5.50;99.90;;;;;;5030978;28;20206;-75
2022/01/18 03:52:48;;;;;;;23.80;20.08;;;5.50;99.90;;;;;;5031681;28;20307;-75
2022/01/18 03:55:19;;;;;;;24.63;19.83;;;5.40;99.90;;;;;;5031773;28;20196;-75
2022/01/18 03:57:47;;;;;;;24.42;19.67;;;5.40;99.90;;;;;;5032337;28;20225;-75
2022/01/18 04:00:16;;;;;;;23.83;18.90;;;5.40;99.90;;;;;;5030760;28;20741;-75
2022/01/18 04:02:43;;;;;;;25.40;20.35;;;5.40;99.90;;;;;;5032490;28;20241;-75
2022/01/18 04:05:12;;;;;;;24.13;20.10;;;5.40;99.90;;;;;;5031082;28;20251;-76
2022/01/18 04:07:39;;;;;;;23.67;18.95;;;5.40;99.90;;;;;;5032785;28;20221;-75
2022/01/18 04:10:08;;;;;;;22.35;19.13;;;5.50;99.90;;;;;;5028641;28;20204;-75
2022/01/18 04:12:37;;;;;;;26.42;20.60;;;5.50;99.90;;;;;;5032189;28;20196;-75
2022/01/18 04:15:04;;;;;;;26.35;21.73;;;5.50;99.90;;;;;;5029969;28;20233;-76
2022/01/18 04:17:47;;;;;;;22.92;19.83;;;5.60;99.90;;;;;;5031646;28;20229;-76
2022/01/18 04:25:55;;;;;;;24.95;19.50;;;5.70;99.90;;;;;;5029862;28;20252;-76
2022/01/18 04:28:34;;;;;;;26.23;19.27;;;5.70;99.90;;;;;;5030640;28;20232;-75
2022/01/18 04:31:01;;;;;;;23.63;19.30;;;5.70;99.90;;;;;;5028925;28;20645;-75
2022/01/18 04:33:29;;;;;;;25.10;20.90;;;5.60;99.90;;;;;;5030689;28;20783;-76
2022/01/18 04:35:56;;;;;;;28.88;20.70;;;5.60;99.90;;;;;;5031228;28;20214;-76
2022/01/18 04:38:23;;;;;;;24.80;20.23;;;5.60;99.90;;;;;;5030944;28;20307;-75
2022/01/18 04:40:50;;;;;;;23.95;19.73;;;5.60;99.90;;;;;;5028915;28;20288;-75
2022/01/18 04:43:23;;;;;;;26.05;20.27;;;5.60;99.90;;;;;;5032295;28;20197;-75
2022/01/18 04:48:37;;;;;;;25.98;19.23;;;5.60;99.90;;;;;;5022716;28;20200;-75
2022/01/18 04:51:07;;;;;;;24.35;19.33;;;5.70;99.90;;;;;;5023972;28;20639;-75
2022/01/18 04:53:36;;;;;;;26.05;21.38;;;5.70;99.90;;;;;;5030588;28;20197;-76
2022/01/18 04:56:08;;;;;;;24.30;19.70;;;5.70;99.90;;;;;;5030474;28;20732;-75
2022/01/18 04:58:35;;;;;;;23.70;19.05;;;5.70;99.90;;;;;;5026041;28;20546;-76
2022/01/18 05:01:05;;;;;;;25.13;20.23;;;5.70;99.90;;;;;;5030679;28;20201;-75
2022/01/18 05:03:33;;;;;;;26.48;21.02;;;5.70;99.90;;;;;;5025075;28;20205;-75
2022/01/18 05:06:07;;;;;;;27.40;20.60;;;5.70;99.90;;;;;;5029651;28;20228;-75
2022/01/18 05:08:35;;;;;;;27.83;20.27;;;5.70;99.90;;;;;;5022648;28;20202;-75
2022/01/18 05:11:03;;;;;;;25.10;19.60;;;5.60;99.90;;;;;;5028706;28;20206;-76
2022/01/18 05:14:03;;;;;;;26.17;20.23;;;5.60;99.90;;;;;;5031520;28;20288;-75
2022/01/18 05:16:48;;;;;;;22.75;18.58;;;5.60;99.90;;;;;;5031236;28;20217;-75
2022/01/18 05:19:23;;;;;;;26.45;20.90;;;5.60;99.90;;;;;;5027781;28;20218;-75
2022/01/18 05:24:35;;;;;;;27.05;21.98;;;5.70;99.90;;;;;;5027483;28;20190;-75
2022/01/18 05:27:04;;;;;;;27.05;19.40;;;5.70;99.90;;;;;;5025376;28;20221;-75
2022/01/18 05:29:31;;;;;;;28.92;20.30;;;5.70;99.90;;;;;;5019401;28;20220;-76
2022/01/18 05:31:59;;;;;;;23.48;18.95;;;5.70;99.90;;;;;;5023561;28;20725;-77
2022/01/18 05:34:26;;;;;;;25.48;19.92;;;5.70;99.90;;;;;;5024145;28;20243;-76
2022/01/18 05:36:53;;;;;;;24.60;20.13;;;5.70;99.90;;;;;;5027695;28;20228;-76
2022/01/18 05:39:21;;;;;;;30.38;20.67;;;5.70;99.90;;;;;;5024196;28;20222;-77
2022/01/18 05:41:48;;;;;;;26.58;20.45;;;5.70;99.90;;;;;;5019848;28;20321;-76
2022/01/18 05:44:15;;;;;;;27.60;19.58;;;5.70;99.90;;;;;;5021433;28;20202;-76
2022/01/18 05:46:42;;;;;;;24.95;19.92;;;5.70;99.90;;;;;;5022910;28;20311;-76
2022/01/18 05:49:11;;;;;;;25.63;21.60;;;5.70;99.90;;;;;;5031002;28;20208;-77
2022/01/18 05:51:40;;;;;;;25.50;20.95;;;5.70;99.90;;;;;;5030254;28;20207;-76
2022/01/18 05:54:07;;;;;;;26.33;21.38;;;5.70;99.90;;;;;;5021573;28;20197;-77
2022/01/18 05:56:35;;;;;;;28.42;21.77;;;5.70;99.90;;;;;;5027404;28;20209;-75
2022/01/18 05:59:03;;;;;;;30.30;18.10;;;5.80;99.90;;;;;;5023226;28;20214;-71
2022/01/18 06:01:35;;;;;;;18.85;14.98;;;5.80;99.90;;;;;;5028337;28;20210;-71
2022/01/18 06:04:17;;;;;;;26.00;20.83;;;5.90;99.90;;;;;;5028647;28;20902;-75
2022/01/18 06:06:51;;;;;;;24.70;21.30;;;6.00;99.90;;;;;;5029199;28;20223;-75
2022/01/18 06:09:19;;;;;;;28.48;20.65;;;6.00;99.90;;;;;;5026968;28;20250;-74
2022/01/18 06:11:47;;;;;;;23.15;19.02;;;6.10;99.90;;;;;;5026474;28;20225;-74
2022/01/18 06:14:14;;;;;;;23.67;20.00;;;6.10;99.90;;;;;;5029087;28;20198;-74
2022/01/18 06:16:41;;;;;;;25.27;18.67;;;6.10;99.90;;;;;;5027144;28;20229;-74
2022/01/18 06:19:08;;;;;;;26.20;19.83;;;6.10;99.90;;;;;;5025543;28;20221;-74
2022/01/18 06:21:35;;;;;;;22.55;19.70;;;6.00;99.90;;;;;;5014476;28;20224;-75
2022/01/18 06:24:04;;;;;;;20.30;17.55;;;6.00;99.90;;;;;;5020369;28;20198;-74
2022/01/18 06:26:31;;;;;;;24.58;19.42;;;6.00;99.90;;;;;;5019877;28;20696;-74
2022/01/18 06:29:00;;;;;;;22.70;19.25;;;6.00;99.90;;;;;;5018829;28;20195;-74
2022/01/18 06:31:27;;;;;;;25.50;22.25;;;6.00;99.90;;;;;;5021693;28;20197;-74
2022/01/18 06:33:54;;;;;;;26.45;23.55;;;6.10;99.90;;;;;;5026938;28;20649;-78
2022/01/18 06:36:21;;;;;;;23.73;19.65;;;6.10;99.90;;;;;;5028032;28;20247;-78
2022/01/18 06:38:48;;;;;;;24.90;19.63;;;6.10;99.90;;;;;;5029066;28;20198;-75
2022/01/18 06:41:16;;;;;;;22.52;18.27;;;6.10;99.90;;;;;;5025415;28;20683;-74
2022/01/18 06:43:43;;;;;;;24.45;19.45;;;6.00;99.90;;;;;;5026454;28;20201;-73
2022/01/18 06:46:10;;;;;;;25.67;19.50;;;6.00;99.90;;;;;;5024906;28;20217;-72
2022/01/18 06:48:37;;;;;;;22.25;17.83;;;6.10;99.90;;;;;;5018649;28;20225;-73
2022/01/18 06:51:04;;;;;;;22.00;18.35;;;6.10;99.90;;;;;;5019138;28;20205;-73
2022/01/18 06:53:33;;;;;;;20.27;17.55;;;6.10;99.90;;;;;;5032360;28;20639;-73
2022/01/18 06:56:02;;;;;;;21.40;16.98;;;6.00;99.90;;;;;;5034058;28;20224;-72
2022/01/18 06:58:30;;;;;;;19.75;16.65;;;6.00;99.90;;;;;;5032709;28;20190;-73
2022/01/18 07:00:58;;;;;;;20.25;15.85;;;6.00;99.90;;;;;;5016222;28;20225;-73
2022/01/18 07:03:24;;;;;;;20.65;16.70;;;6.00;99.90;;;;;;5017657;28;20553;-73
2022/01/18 07:05:51;;;;;;;18.50;14.75;;;6.00;99.90;;;;;;5024932;28;20304;-78
2022/01/18 07:08:19;;;;;;;16.98;14.63;;;6.00;99.90;;;;;;5026096;28;20208;-74
2022/01/18 07:10:45;;;;;;;18.52;14.88;;;6.00;99.90;;;;;;5015134;28;20293;-73
2022/01/18 07:13:14;;;;;;;16.35;14.18;;;6.10;99.90;;;;;;5025965;28;20198;-74
2022/01/18 07:15:43;;;;;;;18.63;15.40;;;6.10;99.90;;;;;;5035246;28;20788;-73
2022/01/18 07:18:10;;;;;;;20.30;14.93;;;6.10;99.90;;;;;;5033139;28;20193;-74
2022/01/18 07:20:37;;;;;;;17.00;14.15;;;6.10;99.90;;;;;;5031536;28;20232;-74
2022/01/18 07:23:06;;;;;;;17.02;13.57;;;6.10;99.90;;;;;;5027177;28;20202;-73
2022/01/18 07:25:34;;;;;;;16.67;13.45;;;6.10;99.90;;;;;;5025716;28;20565;-73
2022/01/18 07:28:01;;;;;;;17.80;13.52;;;6.20;99.90;;;;;;5030996;28;20204;-74
2022/01/18 07:30:28;;;;;;;18.02;12.85;;;6.20;99.90;;;;;;5031293;28;21692;-73
2022/01/18 07:32:56;;;;;;;15.07;12.70;;;6.20;99.90;;;;;;5027236;28;20247;-73
2022/01/18 07:35:25;;;;;;;17.00;13.65;;;6.20;99.90;;;;;;5030541;28;20305;-74
2022/01/18 07:37:52;;;;;;;15.85;12.57;;;6.30;99.90;;;;;;5033425;28;20201;-74
2022/01/18 07:40:19;;;;;;;15.40;13.10;;;6.30;99.90;;;;;;5029933;28;20647;-73
2022/01/18 07:42:46;;;;;;;15.00;12.27;;;6.30;99.90;;;;;;5033216;28;20259;-74
2022/01/18 07:45:13;;;;;;;17.30;13.73;;;6.30;99.90;;;;;;5028268;28;20222;-74
2022/01/18 07:47:40;;;;;;;17.83;14.30;;;6.30;99.90;;;;;;5029032;28;20202;-74
2022/01/18 07:50:09;;;;;;;16.80;13.38;;;6.30;99.90;;;;;;5031254;28;20726;-73
2022/01/18 07:52:36;;;;;;;21.13;14.43;;;6.30;99.90;;;;;;5030959;28;20202;-74
2022/01/18 07:55:04;;;;;;;18.17;15.65;;;6.30;99.90;;;;;;5031926;28;20284;-74
2022/01/18 07:57:31;;;;;;;19.17;14.75;;;6.40;99.90;;;;;;5029383;28;20202;-73
2022/01/18 07:59:58;;;;;;;24.85;17.48;;;6.40;99.90;;;;;;5030391;28;20313;-74
2022/01/18 08:02:25;;;;;;;21.35;17.85;;;6.30;99.90;;;;;;5031820;28;20202;-73
2022/01/18 08:04:52;;;;;;;20.17;17.30;;;6.30;99.90;;;;;;5029246;28;20197;-73
2022/01/18 08:07:21;;;;;;;24.23;18.55;;;6.30;99.90;;;;;;5030578;28;21232;-74
2022/01/18 08:09:47;;;;;;;20.73;16.80;;;6.30;99.90;;;;;;5030375;28;20217;-74
2022/01/18 08:12:14;;;;;;;21.02;17.23;;;6.30;99.90;;;;;;5029060;28;20816;-74
2022/01/18 08:14:45;;;;;;;18.42;16.17;;;6.40;99.90;;;;;;5028439;28;20233;-74
2022/01/18 08:17:13;;;;;;;20.77;16.85;;;6.40;99.90;;;;;;5031956;28;20254;-74
2022/01/18 08:19:40;;;;;;;16.33;14.18;;;6.50;99.90;;;;;;5031183;28;20592;-73
2022/01/18 08:22:07;;;;;;;17.17;15.07;;;6.50;99.90;;;;;;5029694;28;20208;-74
2022/01/18 08:24:36;;;;;;;18.10;15.68;;;6.70;99.90;;;;;;5031075;28;20193;-74
2022/01/18 08:27:05;;;;;;;18.70;15.73;;;6.80;99.90;;;;;;5030003;28;20640;-74
2022/01/18 08:29:32;;;;;;;20.13;15.65;;;6.90;99.90;;;;;;5029452;28;20558;-74
2022/01/18 08:31:59;;;;;;;16.88;15.00;;;7.00;99.90;;;;;;5025377;28;20220;-74
2022/01/18 08:34:26;;;;;;;15.10;12.90;;;7.20;99.90;;;;;;5028344;28;20302;-74
2022/01/18 08:36:53;;;;;;;14.05;11.68;;;7.30;99.90;;;;;;5027280;28;20576;-74
2022/01/18 08:39:20;;;;;;;14.98;11.60;;;7.30;99.90;;;;;;5030862;28;20280;-73
2022/01/18 08:41:48;;;;;;;13.90;10.85;;;7.40;99.90;;;;;;5030139;28;20195;-74
2022/01/18 08:44:15;;;;;;;13.93;12.35;;;7.40;99.90;;;;;;5028207;28;20293;-74
2022/01/18 08:46:42;;;;;;;14.95;11.15;;;7.60;99.90;;;;;;5028425;28;20221;-74
2022/01/18 08:49:09;;;;;;;13.48;10.60;;;7.60;99.90;;;;;;5020844;28;20217;-74
2022/01/18 08:51:36;;;;;;;14.60;11.20;;;7.70;99.90;;;;;;5023675;28;20198;-74
2022/01/18 08:54:04;;;;;;;13.05;11.65;;;7.70;99.90;;;;;;5029068;28;20748;-74
2022/01/18 08:56:32;;;;;;;12.90;11.07;;;7.70;99.90;;;;;;5029542;28;20224;-74
2022/01/18 08:59:00;;;;;;;15.77;12.48;;;7.80;99.90;;;;;;5025957;28;20218;-74
2022/01/18 09:01:27;;;;;;;13.48;11.30;;;7.80;99.90;;;;;;5026863;28;20225;-74
2022/01/18 09:03:54;;;;;;;13.48;11.90;;;7.80;99.90;;;;;;5028822;28;20213;-73
2022/01/18 09:06:23;;;;;;;14.45;11.80;;;7.80;99.90;;;;;;5012208;28;20213;-73
2022/01/18 09:08:55;;;;;;;16.00;12.00;;;7.90;99.90;;;;;;5030154;28;20865;-74
2022/01/18 09:11:24;;;;;;;14.48;11.30;;;8.10;99.90;;;;;;5027289;28;20289;-74
2022/01/18 09:13:52;;;;;;;13.25;10.70;;;8.20;99.90;;;;;;5024758;28;20200;-74
2022/01/18 09:16:21;;;;;;;14.00;12.55;;;8.60;99.90;;;;;;5030086;28;20227;-74
2022/01/18 09:18:48;;;;;;;11.50;10.05;;;9.00;99.90;;;;;;5028880;28;20210;-74
2022/01/18 09:21:15;;;;;;;12.85;10.25;;;9.50;99.90;;;;;;5028061;28;20228;-74
2022/01/18 09:23:43;;;;;;;13.60;12.30;;;10.10;99.90;;;;;;5026113;28;20300;-74
2022/01/18 09:26:13;;;;;;;13.02;11.35;;;10.50;99.90;;;;;;5027903;28;20278;-74
2022/01/18 09:28:40;;;;;;;10.25;9.20;;;10.90;99.90;;;;;;5028548;28;20292;-74
2022/01/18 09:31:07;;;;;;;10.85;9.73;;;11.10;99.90;;;;;;5028761;28;20657;-74
2022/01/18 09:33:36;;;;;;;13.02;11.02;;;11.20;99.90;;;;;;5023945;28;20197;-74
2022/01/18 09:36:03;;;;;;;14.35;10.73;;;11.20;99.90;;;;;;5018707;28;20222;-74
2022/01/18 09:38:30;;;;;;;15.07;10.82;;;11.20;99.90;;;;;;5021632;28;20284;-74
2022/01/18 09:41:00;;;;;;;12.68;10.52;;;11.20;99.90;;;;;;5029119;28;20228;-74
2022/01/18 09:43:28;;;;;;;11.00;8.38;;;11.10;99.90;;;;;;5028525;28;20236;-74
2022/01/18 09:45:57;;;;;;;11.90;9.30;;;11.50;99.90;;;;;;5022206;28;20589;-75
2022/01/18 09:48:24;;;;;;;10.02;8.98;;;12.30;99.90;;;;;;5027376;28;20708;-75
2022/01/18 09:50:52;;;;;;;10.13;8.73;;;13.10;99.90;;;;;;5029789;28;20777;-74
2022/01/18 09:53:19;;;;;;;9.10;8.15;;;13.60;99.90;;;;;;5029864;28;20201;-75
2022/01/18 09:55:48;;;;;;;8.60;7.60;;;14.00;99.90;;;;;;5028484;28;20218;-74
2022/01/18 09:58:16;;;;;;;8.37;7.57;;;14.10;99.90;;;;;;5028279;28;20464;-74
2022/01/18 10:00:43;;;;;;;8.47;7.30;;;14.10;99.90;;;;;;5020123;28;20485;-75
2022/01/18 10:03:27;;;;;;;7.77;7.00;;;14.40;99.90;;;;;;5017319;28;20462;-74
2022/01/18 10:05:56;;;;;;;7.17;6.47;;;15.00;99.90;;;;;;5028091;28;20531;-75
2022/01/18 10:08:24;;;;;;;8.40;6.67;;;15.80;99.90;;;;;;5027010;28;20454;-74
2022/01/18 10:10:54;;;;;;;7.17;6.47;;;15.90;97.40;;;;;;5025121;28;21018;-74
2022/01/18 10:13:23;;;;;;;7.00;6.30;;;15.70;97.30;;;;;;5022636;28;20520;-74
2022/01/18 10:16:06;;;;;;;7.90;7.10;;;15.40;97.40;;;;;;5025869;28;20478;-74
2022/01/18 10:18:43;;;;;;;8.07;7.23;;;15.40;98.50;;;;;;5024134;28;20996;-75
2022/01/18 10:21:12;;;;;;;10.43;8.30;;;15.70;97.70;;;;;;5015329;28;20581;-74
2022/01/18 10:23:47;;;;;;;8.20;6.60;;;16.00;96.70;;;;;;5019929;28;20462;-75
2022/01/18 10:26:17;;;;;;;6.20;5.57;;;16.10;96.10;;;;;;5024705;28;21051;-74
2022/01/18 10:28:44;;;;;;;6.47;5.43;;;15.80;95.80;;;;;;5025815;28;20496;-75
2022/01/18 10:31:27;;;;;;;7.30;6.60;;;15.60;95.80;;;;;;5026514;28;21720;-74
2022/01/18 10:34:13;;;;;;;9.90;7.20;;;15.30;96.30;;;;;;5013743;28;20540;-75
2022/01/18 10:36:54;;;;;;;8.10;6.43;;;15.50;97.30;;;;;;5027903;28;20489;-75
2022/01/18 10:39:22;;;;;;;7.53;6.80;;;16.20;96.40;;;;;;5026638;28;20459;-75
2022/01/18 10:41:50;;;;;;;7.60;6.80;;;16.60;95.40;;;;;;5023089;28;20486;-74
2022/01/18 10:44:18;;;;;;;8.07;7.20;;;16.80;94.30;;;;;;5027519;28;20558;-75
2022/01/18 10:46:47;;;;;;;8.07;7.27;;;16.50;93.30;;;;;;5016696;28;20485;-75
2022/01/18 10:49:27;;;;;;;7.77;6.97;;;16.10;94.10;;;;;;5027338;28;20459;-75
2022/01/18 10:52:02;;;;;;;8.25;7.35;;;15.50;93.90;;;;;;5020714;28;20539;-74
2022/01/18 10:54:38;;;;;;;8.82;7.93;;;13.80;95.20;;;;;;5023970;28;20201;-74
2022/01/18 10:57:07;;;;;;;11.25;9.65;;;12.70;97.50;;;;;;5030581;28;20611;-74
2022/01/18 10:59:35;;;;;;;10.60;8.95;;;11.90;98.80;;;;;;5030061;28;20292;-74
2022/01/18 11:02:07;;;;;;;10.20;8.20;;;11.30;99.90;;;;;;5031107;28;20311;-74
2022/01/18 11:04:34;;;;;;;10.38;8.27;;;11.10;99.90;;;;;;5027403;28;20204;-74
2022/01/18 11:07:04;;;;;;;10.50;8.30;;;10.70;99.90;;;;;;5020305;28;20197;-74
2022/01/18 11:09:31;;;;;;;10.23;6.80;;;10.70;99.90;;;;;;5019294;28;20204;-75
2022/01/18 11:11:58;;;;;;;8.10;6.93;;;11.50;99.90;;;;;;5027153;28;20197;-75
2022/01/18 11:14:26;;;;;;;9.52;7.45;;;12.60;99.90;;;;;;5022721;28;20201;-75
2022/01/18 11:16:56;;;;;;;12.60;8.70;;;13.30;99.90;;;;;;5028080;28;20225;-75
2022/01/18 11:19:33;;;;;;;11.75;8.48;;;13.60;99.50;;;;;;5019737;28;20192;-74
2022/01/18 11:22:07;;;;;;;8.80;7.50;;;13.60;99.80;;;;;;5026937;28;20608;-75
2022/01/18 11:24:37;;;;;;;8.20;6.10;;;13.90;99.90;;;;;;5025468;28;20259;-75
2022/01/18 11:27:08;;;;;;;7.60;6.00;;;14.60;98.80;;;;;;5025565;28;20201;-74
2022/01/18 11:29:36;;;;;;;5.67;4.80;;;14.90;96.90;;;;;;5023777;28;20464;-74
2022/01/18 11:32:04;;;;;;;9.10;5.68;;;14.80;97.10;;;;;;5029020;28;20475;-75
2022/01/18 11:34:44;;;;;;;7.28;5.78;;;14.50;97.00;;;;;;5023371;28;20638;-75
2022/01/18 11:37:18;;;;;;;6.05;4.00;;;14.00;97.30;;;;;;5027913;28;20205;-75
2022/01/18 11:39:45;;;;;;;5.75;4.70;;;13.40;97.60;;;;;;5024457;28;20549;-75
2022/01/18 11:42:14;;;;;;;5.85;4.30;;;12.90;98.10;;;;;;5019476;28;20316;-75
2022/01/18 11:44:41;;;;;;;4.75;4.07;;;12.30;98.80;;;;;;5029939;28;20205;-75
2022/01/18 11:47:09;;;;;;;5.63;4.40;;;11.70;99.60;;;;;;5026035;28;20201;-75
2022/01/18 11:49:45;;;;;;;6.13;4.70;;;11.20;99.90;;;;;;5030809;28;20197;-75
2022/01/18 11:52:31;;;;;;;9.45;5.07;;;10.70;99.90;;;;;;5027360;28;20661;-75
2022/01/18 11:55:00;;;;;;;7.30;4.25;;;10.20;99.90;;;;;;5028723;28;20221;-74
2022/01/18 11:57:37;;;;;;;5.85;4.20;;;9.80;99.90;;;;;;5025122;28;20219;-74
2022/01/18 12:00:23;;;;;;;7.28;4.22;;;9.20;99.90;;;;;;5031301;28;20643;-74
2022/01/18 12:02:54;;;;;;;5.93;4.03;;;8.90;99.90;;;;;;5028333;28;20337;-74
2022/01/18 12:05:22;;;;;;;5.78;3.83;;;8.70;99.90;;;;;;5030134;28;20217;-74
2022/01/18 12:07:53;;;;;;;6.30;3.70;;;8.60;99.90;;;;;;5023939;28;20201;-74
2022/01/18 12:10:43;;;;;;;5.78;3.85;;;8.60;99.90;;;;;;5025588;28;20720;-75
2022/01/18 12:13:13;;;;;;;5.65;3.35;;;8.80;99.90;;;;;;5022607;28;20558;-75
2022/01/18 12:15:49;;;;;;;5.05;3.30;;;9.10;99.90;;;;;;5021569;28;20286;-75
2022/01/18 12:18:18;;;;;;;6.22;3.63;;;9.20;99.90;;;;;;5017453;28;20207;-75
2022/01/18 12:20:46;;;;;;;6.30;3.72;;;9.20;99.90;;;;;;5021555;28;20204;-75
2022/01/18 12:23:18;;;;;;;4.07;3.55;;;9.10;99.90;;;;;;5022954;28;20266;-74
2022/01/18 12:25:59;;;;;;;5.00;2.65;;;9.10;99.90;;;;;;5008726;28;20222;-74
2022/01/18 12:29:08;;;;;;;3.42;2.72;;;9.00;99.90;;;;;;5024606;28;20191;-75
2022/01/18 12:35:18;;;;;;;4.30;2.80;;;8.90;99.90;;;;;;4948727;28;20723;-75
2022/01/18 12:37:48;;;;;;;4.90;2.60;;;9.00;99.90;;;;;;4946928;28;20202;-75
2022/01/18 12:40:34;;;;;;;3.00;2.70;;;8.90;99.90;;;;;;5000408;28;20195;-75
2022/01/18 12:45:52;;;;;;;4.70;3.35;;;8.80;99.90;;;;;;5018491;28;20219;-75
2022/01/18 12:48:20;;;;;;;4.15;3.15;;;8.70;99.90;;;;;;5022037;28;20276;-77
2022/01/18 12:50:51;;;;;;;4.60;3.80;;;8.60;99.90;;;;;;5022491;28;20237;-75
2022/01/18 12:53:21;;;;;;;4.53;3.38;;;8.40;99.90;;;;;;5021288;28;20198;-75
2022/01/18 12:55:55;;;;;;;4.70;3.60;;;8.20;99.90;;;;;;5023761;28;20218;-76
2022/01/18 12:58:24;;;;;;;4.57;3.55;;;8.20;99.90;;;;;;5019234;28;20594;-75
2022/01/18 13:00:52;;;;;;;4.15;3.75;;;8.10;99.90;;;;;;5023686;28;20286;-76
2022/01/18 13:03:22;;;;;;;4.85;3.67;;;8.30;99.90;;;;;;5020193;28;20728;-77
2022/01/18 13:05:52;;;;;;;3.55;2.60;;;8.60;99.90;;;;;;5019819;28;20326;-76
2022/01/18 13:08:21;;;;;;;5.05;3.17;;;8.60;99.90;;;;;;5023952;28;20198;-75
2022/01/18 13:10:51;;;;;;;7.45;3.08;;;8.80;99.90;;;;;;5019889;28;20200;-75
2022/01/18 13:13:21;;;;;;;3.83;2.90;;;9.10;99.90;;;;;;5018877;28;20302;-74
2022/01/18 13:24:41;;;;;;;3.70;2.75;;;10.90;99.90;;;;;;5017356;28;20197;-75
2022/01/18 13:27:13;;;;;;;3.53;2.95;;;11.00;99.90;;;;;;5015216;28;20574;-75
2022/01/18 13:29:41;;;;;;;4.45;2.72;;;10.80;99.90;;;;;;5013161;28;20256;-76
2022/01/18 13:32:14;;;;;;;3.80;2.65;;;10.40;99.90;;;;;;5016940;28;20208;-75
2022/01/18 13:34:43;;;;;;;4.88;3.25;;;10.00;99.90;;;;;;5025424;28;20223;-75
2022/01/18 13:37:12;;;;;;;5.97;3.05;;;9.70;99.90;;;;;;5022828;28;20739;-75
2022/01/18 13:39:45;;;;;;;3.80;2.50;;;9.30;99.90;;;;;;5015414;28;20236;-75
2022/01/18 13:42:17;;;;;;;3.03;2.83;;;8.70;99.90;;;;;;5018391;28;20886;-77
2022/01/18 13:45:13;;;;;;;4.10;2.60;;;8.40;99.90;;;;;;5019354;28;20221;-76